Malatya/Erhac, Turkey
Current Conditions -  °F | °C
As of 2:50 PM on Tuesday 21 Oct 2014 (Local Time) from LTAT Reporting Station
Clear Clear  
Wind Chill: 63°   Ceiling: Unl
Heat Index: 63°   Visibility: 6mi
Dew Point: 34°   Wind: 2mph
Humidity: 34%   Direction: NA
Pressure: 30.03"   Gusts: NA
Location:  38.43°N, 38.08°E
Report Text: LTAT 211150Z VRB02KT CAVOK 17/01 Q1017 NOSIG
Loading
Personal Weather Stations






























Interactive Weather Map New forecast layout! Learn more

10-Day Weather Forecast

Advertisements
Track Severe Weather on mobile